KOCH/OCH METAR and TAF weather

Enter ICAO airport designator
Station Type Date Time Source
KOCH METAR 2021/07/29 17:56 UTC NOAA

KOCH 291756Z AUTO 03004KT 10SM FEW044 SCT100 33/24 A3005 RMK AO2 SLP177 T03330244 10344 20239 58013


Station Type Date Time Source
KOCH Decoded METAR 2021/07/29 17:56 UTC NOAA

Nacogdoches, A L Mangham Jr. Regional Airport, TX, United States (KOCH) 31-35N 094-43W
Jul 29, 2021 - 01:56 PM EDT / 2021.07.29 1756 UTC
Wind: from the NNE (030 degrees) at 5 MPH (4 KT):0
Visibility: 10 mile(s):0
Sky conditions: partly cloudy
Temperature: 91.9 F (33.3 C)
Heat index: 103.8 F (39.9 C):1
Dew Point: 75.9 F (24.4 C)
Relative Humidity: 59%
Pressure (altimeter): 30.05 in. Hg (1017 hPa)
Pressure tendency: 0.04 inches (1.3 hPa) lower than three hours ago
ob: KOCH 291756Z AUTO 03004KT 10SM FEW044 SCT100 33/24 A3005 RMK AO2 SLP177 T03330244 10344 20239 58013
cycle: 18

Station Type Date Time Source
KOCH TAF UTC NOAA

Error!

Example: see airport list